sensor_id;sensor_type;location;lat;lon;timestamp;P1;durP1;ratioP1;P2;durP2;ratioP2
22764;SDS011;11549;50.852;3.816;2022-11-20T17:02:56;23.73;;;4.90;;
22764;SDS011;11549;50.852;3.816;2022-11-20T17:05:25;23.63;;;5.40;;
22764;SDS011;11549;50.852;3.816;2022-11-20T17:07:55;23.30;;;5.57;;
22764;SDS011;11549;50.852;3.816;2022-11-20T17:10:24;19.17;;;4.90;;
22764;SDS011;11549;50.852;3.816;2022-11-20T17:12:52;21.90;;;5.63;;
22764;SDS011;11549;50.852;3.816;2022-11-20T17:15:21;22.48;;;5.05;;
22764;SDS011;11549;50.852;3.816;2022-11-20T17:17:49;19.27;;;4.95;;
22764;SDS011;11549;50.852;3.816;2022-11-20T17:20:18;21.48;;;6.00;;
22764;SDS011;11549;50.852;3.816;2022-11-20T17:22:47;18.80;;;5.35;;
22764;SDS011;11549;50.852;3.816;2022-11-20T17:25:15;20.88;;;5.05;;
22764;SDS011;11549;50.852;3.816;2022-11-20T17:27:43;28.10;;;6.32;;
22764;SDS011;11549;50.852;3.816;2022-11-20T17:30:12;24.90;;;6.45;;
22764;SDS011;11549;50.852;3.816;2022-11-20T17:32:40;18.33;;;4.82;;
22764;SDS011;11549;50.852;3.816;2022-11-20T17:35:12;21.15;;;5.70;;
22764;SDS011;11549;50.852;3.816;2022-11-20T17:37:42;26.33;;;5.82;;
22764;SDS011;11549;50.852;3.816;2022-11-20T17:40:10;23.88;;;5.40;;
22764;SDS011;11549;50.852;3.816;2022-11-20T17:42:38;20.63;;;5.63;;
22764;SDS011;11549;50.852;3.816;2022-11-20T17:45:06;26.90;;;5.45;;
22764;SDS011;11549;50.852;3.816;2022-11-20T17:47:35;22.40;;;5.38;;
22764;SDS011;11549;50.852;3.816;2022-11-20T17:50:03;20.83;;;5.35;;
22764;SDS011;11549;50.852;3.816;2022-11-20T17:52:32;21.60;;;5.78;;
22764;SDS011;11549;50.852;3.816;2022-11-20T17:55:02;26.33;;;5.70;;
22764;SDS011;11549;50.852;3.816;2022-11-20T17:57:31;21.20;;;5.25;;
22764;SDS011;11549;50.852;3.816;2022-11-20T18:00:17;24.60;;;5.38;;
22764;SDS011;11549;50.852;3.816;2022-11-20T18:02:46;26.80;;;5.40;;
22764;SDS011;11549;50.852;3.816;2022-11-20T18:05:14;22.63;;;5.32;;
22764;SDS011;11549;50.852;3.816;2022-11-20T18:07:42;25.40;;;5.65;;
22764;SDS011;11549;50.852;3.816;2022-11-20T18:10:13;26.20;;;5.65;;
22764;SDS011;11549;50.852;3.816;2022-11-20T18:12:41;21.38;;;4.40;;
22764;SDS011;11549;50.852;3.816;2022-11-20T18:15:09;22.50;;;5.30;;
22764;SDS011;11549;50.852;3.816;2022-11-20T18:17:37;23.38;;;4.68;;
22764;SDS011;11549;50.852;3.816;2022-11-20T18:20:06;26.15;;;4.60;;
22764;SDS011;11549;50.852;3.816;2022-11-20T18:22:55;26.00;;;4.90;;
22764;SDS011;11549;50.852;3.816;2022-11-20T18:25:25;24.25;;;5.55;;
22764;SDS011;11549;50.852;3.816;2022-11-20T18:27:53;23.52;;;4.93;;
22764;SDS011;11549;50.852;3.816;2022-11-20T18:30:22;23.08;;;5.57;;
22764;SDS011;11549;50.852;3.816;2022-11-20T18:32:50;25.10;;;6.05;;
22764;SDS011;11549;50.852;3.816;2022-11-20T18:35:18;21.15;;;4.93;;
22764;SDS011;11549;50.852;3.816;2022-11-20T18:37:46;19.58;;;5.00;;
22764;SDS011;11549;50.852;3.816;2022-11-20T18:40:15;25.30;;;5.05;;
22764;SDS011;11549;50.852;3.816;2022-11-20T18:42:44;19.65;;;5.30;;
22764;SDS011;11549;50.852;3.816;2022-11-20T18:45:30;18.17;;;4.80;;
22764;SDS011;11549;50.852;3.816;2022-11-20T18:47:58;17.73;;;4.63;;
22764;SDS011;11549;50.852;3.816;2022-11-20T18:50:26;24.40;;;5.47;;
22764;SDS011;11549;50.852;3.816;2022-11-20T18:52:55;24.02;;;5.45;;
22764;SDS011;11549;50.852;3.816;2022-11-20T18:55:23;23.42;;;5.38;;
22764;SDS011;11549;50.852;3.816;2022-11-20T18:57:53;22.50;;;5.10;;
22764;SDS011;11549;50.852;3.816;2022-11-20T19:00:21;17.55;;;5.35;;
22764;SDS011;11549;50.852;3.816;2022-11-20T19:02:51;20.17;;;4.95;;
22764;SDS011;11549;50.852;3.816;2022-11-20T19:05:20;22.77;;;4.90;;
22764;SDS011;11549;50.852;3.816;2022-11-20T19:07:49;20.00;;;4.85;;
22764;SDS011;11549;50.852;3.816;2022-11-20T19:10:18;25.00;;;4.72;;
22764;SDS011;11549;50.852;3.816;2022-11-20T19:12:49;27.27;;;5.00;;
22764;SDS011;11549;50.852;3.816;2022-11-20T19:15:19;24.52;;;5.22;;
22764;SDS011;11549;50.852;3.816;2022-11-20T19:17:47;19.45;;;5.40;;
22764;SDS011;11549;50.852;3.816;2022-11-20T19:20:15;18.30;;;4.50;;
22764;SDS011;11549;50.852;3.816;2022-11-20T19:22:44;21.83;;;4.68;;
22764;SDS011;11549;50.852;3.816;2022-11-20T19:25:16;24.52;;;5.53;;
22764;SDS011;11549;50.852;3.816;2022-11-20T19:27:45;21.75;;;4.97;;
22764;SDS011;11549;50.852;3.816;2022-11-20T19:30:13;29.08;;;5.80;;
22764;SDS011;11549;50.852;3.816;2022-11-20T19:32:44;18.52;;;4.68;;
22764;SDS011;11549;50.852;3.816;2022-11-20T19:35:12;21.30;;;5.15;;
22764;SDS011;11549;50.852;3.816;2022-11-20T19:37:40;16.90;;;4.82;;
22764;SDS011;11549;50.852;3.816;2022-11-20T19:40:09;20.25;;;5.32;;
22764;SDS011;11549;50.852;3.816;2022-11-20T19:42:37;19.58;;;5.22;;
22764;SDS011;11549;50.852;3.816;2022-11-20T19:45:06;22.95;;;4.43;;
22764;SDS011;11549;50.852;3.816;2022-11-20T19:47:36;21.25;;;4.93;;
22764;SDS011;11549;50.852;3.816;2022-11-20T19:50:25;18.95;;;5.45;;
22764;SDS011;11549;50.852;3.816;2022-11-20T19:52:54;20.60;;;5.40;;
22764;SDS011;11549;50.852;3.816;2022-11-20T19:55:24;23.58;;;4.78;;
22764;SDS011;11549;50.852;3.816;2022-11-20T19:57:53;21.33;;;6.22;;
22764;SDS011;11549;50.852;3.816;2022-11-20T20:00:21;25.25;;;6.53;;
22764;SDS011;11549;50.852;3.816;2022-11-20T20:02:57;20.45;;;5.63;;
22764;SDS011;11549;50.852;3.816;2022-11-20T20:05:27;21.20;;;5.32;;
22764;SDS011;11549;50.852;3.816;2022-11-20T20:07:56;23.60;;;5.57;;
22764;SDS011;11549;50.852;3.816;2022-11-20T20:10:24;23.67;;;5.75;;
22764;SDS011;11549;50.852;3.816;2022-11-20T20:12:52;21.80;;;6.03;;
22764;SDS011;11549;50.852;3.816;2022-11-20T20:15:20;20.95;;;5.47;;
22764;SDS011;11549;50.852;3.816;2022-11-20T20:17:50;25.80;;;5.30;;
22764;SDS011;11549;50.852;3.816;2022-11-20T20:20:18;23.40;;;5.55;;
22764;SDS011;11549;50.852;3.816;2022-11-20T20:22:48;19.52;;;5.18;;
22764;SDS011;11549;50.852;3.816;2022-11-20T20:25:16;18.05;;;4.68;;
22764;SDS011;11549;50.852;3.816;2022-11-20T20:27:45;17.80;;;5.18;;
22764;SDS011;11549;50.852;3.816;2022-11-20T20:30:13;24.10;;;5.15;;
22764;SDS011;11549;50.852;3.816;2022-11-20T20:32:41;17.88;;;5.20;;
22764;SDS011;11549;50.852;3.816;2022-11-20T20:35:10;21.52;;;5.40;;
22764;SDS011;11549;50.852;3.816;2022-11-20T20:37:38;19.40;;;4.90;;
22764;SDS011;11549;50.852;3.816;2022-11-20T20:40:08;18.58;;;4.90;;
22764;SDS011;11549;50.852;3.816;2022-11-20T20:42:40;24.75;;;4.82;;
22764;SDS011;11549;50.852;3.816;2022-11-20T20:45:09;20.92;;;5.10;;
22764;SDS011;11549;50.852;3.816;2022-11-20T20:47:38;20.25;;;5.18;;
22764;SDS011;11549;50.852;3.816;2022-11-20T20:50:08;24.63;;;5.47;;
22764;SDS011;11549;50.852;3.816;2022-11-20T20:52:38;19.33;;;4.82;;
22764;SDS011;11549;50.852;3.816;2022-11-20T20:55:08;24.13;;;5.28;;
22764;SDS011;11549;50.852;3.816;2022-11-20T20:57:37;16.90;;;5.40;;
22764;SDS011;11549;50.852;3.816;2022-11-20T21:00:06;21.75;;;6.07;;
22764;SDS011;11549;50.852;3.816;2022-11-20T21:02:35;21.77;;;6.15;;
22764;SDS011;11549;50.852;3.816;2022-11-20T21:05:04;20.55;;;5.88;;
22764;SDS011;11549;50.852;3.816;2022-11-20T21:07:33;19.05;;;5.90;;
22764;SDS011;11549;50.852;3.816;2022-11-20T21:10:24;21.98;;;5.90;;
22764;SDS011;11549;50.852;3.816;2022-11-20T21:12:52;21.15;;;5.80;;
22764;SDS011;11549;50.852;3.816;2022-11-20T21:15:20;15.65;;;5.32;;
22764;SDS011;11549;50.852;3.816;2022-11-20T21:17:49;21.17;;;6.00;;
22764;SDS011;11549;50.852;3.816;2022-11-20T21:20:17;18.00;;;5.10;;
22764;SDS011;11549;50.852;3.816;2022-11-20T21:23:06;19.00;;;4.90;;
22764;SDS011;11549;50.852;3.816;2022-11-20T21:25:38;18.08;;;4.72;;
22764;SDS011;11549;50.852;3.816;2022-11-20T21:28:06;13.88;;;4.53;;
22764;SDS011;11549;50.852;3.816;2022-11-20T21:30:41;16.08;;;4.68;;
22764;SDS011;11549;50.852;3.816;2022-11-20T21:33:09;17.17;;;3.95;;
22764;SDS011;11549;50.852;3.816;2022-11-20T21:35:37;13.63;;;4.22;;
22764;SDS011;11549;50.852;3.816;2022-11-20T21:38:06;12.57;;;3.22;;
22764;SDS011;11549;50.852;3.816;2022-11-20T21:40:35;11.60;;;3.08;;
22764;SDS011;11549;50.852;3.816;2022-11-20T21:43:04;13.35;;;3.45;;
22764;SDS011;11549;50.852;3.816;2022-11-20T21:45:33;9.40;;;3.03;;
22764;SDS011;11549;50.852;3.816;2022-11-20T21:48:01;12.18;;;3.45;;
22764;SDS011;11549;50.852;3.816;2022-11-20T21:50:29;13.52;;;3.78;;
22764;SDS011;11549;50.852;3.816;2022-11-20T21:52:57;11.52;;;3.40;;
22764;SDS011;11549;50.852;3.816;2022-11-20T21:55:25;13.55;;;3.60;;
22764;SDS011;11549;50.852;3.816;2022-11-20T21:57:54;10.82;;;3.25;;
22764;SDS011;11549;50.852;3.816;2022-11-20T22:00:23;14.30;;;3.85;;
22764;SDS011;11549;50.852;3.816;2022-11-20T22:02:52;12.13;;;3.55;;
22764;SDS011;11549;50.852;3.816;2022-11-20T22:05:20;14.25;;;3.85;;
22764;SDS011;11549;50.852;3.816;2022-11-20T22:07:48;12.82;;;3.38;;
22764;SDS011;11549;50.852;3.816;2022-11-20T22:10:16;10.55;;;3.13;;
22764;SDS011;11549;50.852;3.816;2022-11-20T22:12:45;11.98;;;3.42;;
22764;SDS011;11549;50.852;3.816;2022-11-20T22:15:13;8.68;;;3.15;;
22764;SDS011;11549;50.852;3.816;2022-11-20T22:18:00;10.43;;;3.30;;
22764;SDS011;11549;50.852;3.816;2022-11-20T22:20:40;10.85;;;3.70;;
22764;SDS011;11549;50.852;3.816;2022-11-20T22:23:08;13.93;;;4.38;;
22764;SDS011;11549;50.852;3.816;2022-11-20T22:25:36;15.80;;;4.53;;
22764;SDS011;11549;50.852;3.816;2022-11-20T22:28:04;11.45;;;3.90;;
22764;SDS011;11549;50.852;3.816;2022-11-20T22:30:33;12.57;;;3.70;;
22764;SDS011;11549;50.852;3.816;2022-11-20T22:33:02;14.15;;;3.88;;
22764;SDS011;11549;50.852;3.816;2022-11-20T22:35:38;14.45;;;4.60;;
22764;SDS011;11549;50.852;3.816;2022-11-20T22:38:07;14.45;;;4.80;;
22764;SDS011;11549;50.852;3.816;2022-11-20T22:40:35;14.48;;;4.70;;
22764;SDS011;11549;50.852;3.816;2022-11-20T22:43:03;11.45;;;4.45;;
22764;SDS011;11549;50.852;3.816;2022-11-20T22:45:31;13.45;;;4.03;;
22764;SDS011;11549;50.852;3.816;2022-11-20T22:47:59;10.80;;;4.25;;
22764;SDS011;11549;50.852;3.816;2022-11-20T22:50:29;12.43;;;4.10;;
22764;SDS011;11549;50.852;3.816;2022-11-20T22:52:57;10.00;;;3.80;;
22764;SDS011;11549;50.852;3.816;2022-11-20T22:55:26;12.65;;;3.85;;
22764;SDS011;11549;50.852;3.816;2022-11-20T22:57:55;11.77;;;3.78;;
22764;SDS011;11549;50.852;3.816;2022-11-20T23:00:23;10.50;;;3.72;;
22764;SDS011;11549;50.852;3.816;2022-11-20T23:02:51;10.73;;;3.33;;
22764;SDS011;11549;50.852;3.816;2022-11-20T23:05:19;12.10;;;3.70;;
22764;SDS011;11549;50.852;3.816;2022-11-20T23:07:49;13.00;;;3.80;;
22764;SDS011;11549;50.852;3.816;2022-11-20T23:10:17;12.80;;;3.97;;
22764;SDS011;11549;50.852;3.816;2022-11-20T23:12:45;12.60;;;3.72;;
22764;SDS011;11549;50.852;3.816;2022-11-20T23:15:14;9.82;;;3.58;;
22764;SDS011;11549;50.852;3.816;2022-11-20T23:17:42;13.50;;;3.90;;
22764;SDS011;11549;50.852;3.816;2022-11-20T23:20:10;11.77;;;4.32;;
22764;SDS011;11549;50.852;3.816;2022-11-20T23:22:38;16.23;;;4.18;;
22764;SDS011;11549;50.852;3.816;2022-11-20T23:25:08;16.30;;;4.15;;
22764;SDS011;11549;50.852;3.816;2022-11-20T23:27:36;16.85;;;4.20;;
22764;SDS011;11549;50.852;3.816;2022-11-20T23:30:05;12.48;;;3.78;;
22764;SDS011;11549;50.852;3.816;2022-11-20T23:32:35;14.88;;;4.03;;
22764;SDS011;11549;50.852;3.816;2022-11-20T23:35:03;14.75;;;4.13;;
22764;SDS011;11549;50.852;3.816;2022-11-20T23:37:32;11.63;;;3.63;;
22764;SDS011;11549;50.852;3.816;2022-11-20T23:40:00;12.55;;;3.55;;
22764;SDS011;11549;50.852;3.816;2022-11-20T23:42:29;12.90;;;3.90;;
22764;SDS011;11549;50.852;3.816;2022-11-20T23:44:58;13.90;;;3.60;;
22764;SDS011;11549;50.852;3.816;2022-11-20T23:47:26;16.00;;;3.58;;
22764;SDS011;11549;50.852;3.816;2022-11-20T23:49:54;13.73;;;3.85;;
22764;SDS011;11549;50.852;3.816;2022-11-20T23:52:22;12.30;;;3.50;;
22764;SDS011;11549;50.852;3.816;2022-11-20T23:54:51;15.90;;;3.92;;
22764;SDS011;11549;50.852;3.816;2022-11-20T23:57:19;11.35;;;3.80;;
22764;SDS011;11549;50.852;3.816;2022-11-20T23:59:49;13.38;;;3.60;;
